Terminal Aerodrome Forecast
Issued by NWS Sioux Falls, SD

Home | Current Version | Previous Version | Text Only | Print | Product List | Glossary Off
Versions: 1 2 3 4 5 6 7 8 9 10 11 12 13 14

000
FTUS43 KFSD 222329
TAFSUX
TAF
KSUX 222329Z 2300/2324 01015KT P6SM OVC090
     FM230200 35008KT P6SM BKN120
     FM230700 31006KT P6SM SCT200
     FM231600 32014G22KT P6SM SCT070=

USA.gov is the U.S. government's official web portal to all federal, state and local government web resources and services.